createdAt,value
2018-02-13T00:01:02.052Z,1016.97
2018-02-13T00:02:29.194Z,1016.98
2018-02-13T00:03:56.898Z,1017.00
2018-02-13T00:05:22.414Z,1017.03
2018-02-13T00:06:49.455Z,1017.02
2018-02-13T00:08:16.454Z,1017.01
2018-02-13T00:09:43.407Z,1016.99
2018-02-13T00:11:10.279Z,1016.97
2018-02-13T00:12:37.197Z,1016.96
2018-02-13T00:14:04.409Z,1016.95
2018-02-13T00:15:31.728Z,1016.98
2018-02-13T00:16:59.019Z,1017.00
2018-02-13T00:18:25.651Z,1016.99
2018-02-13T00:19:52.781Z,1016.95
2018-02-13T00:21:19.819Z,1016.96
2018-02-13T00:22:46.968Z,1016.95
2018-02-13T00:24:13.996Z,1016.95
2018-02-13T00:25:41.077Z,1016.99
2018-02-13T00:27:08.136Z,1017.01
2018-02-13T00:28:35.149Z,1017.06
2018-02-13T00:30:02.066Z,1017.08
2018-02-13T00:31:29.204Z,1017.08
2018-02-13T00:32:56.566Z,1017.07
2018-02-13T00:34:23.707Z,1017.10
2018-02-13T00:35:50.716Z,1017.11
2018-02-13T00:37:17.548Z,1017.14
2018-02-13T00:38:44.707Z,1017.15
2018-02-13T00:40:11.904Z,1017.16
2018-02-13T00:41:38.958Z,1017.18
2018-02-13T00:43:05.982Z,1017.18
2018-02-13T00:44:33.230Z,1017.19
2018-02-13T00:46:00.366Z,1017.21
2018-02-13T00:47:27.453Z,1017.19
2018-02-13T00:48:54.667Z,1017.16
2018-02-13T00:50:21.866Z,1017.18
2018-02-13T00:51:48.179Z,1017.19
2018-02-13T00:53:15.327Z,1017.20
2018-02-13T00:54:42.277Z,1017.21
2018-02-13T00:56:09.230Z,1017.20
2018-02-13T00:57:35.926Z,1017.21
2018-02-13T00:59:03.058Z,1017.20
2018-02-13T01:00:29.737Z,1017.21
2018-02-13T01:01:56.965Z,1017.21
2018-02-13T01:03:24.096Z,1017.27
2018-02-13T01:04:51.372Z,1017.23
2018-02-13T01:06:18.397Z,1017.24
2018-02-13T01:07:45.747Z,1017.26
2018-02-13T01:09:12.707Z,1017.25
2018-02-13T01:10:39.279Z,1017.26
2018-02-13T01:12:06.278Z,1017.27
2018-02-13T01:13:33.466Z,1017.28
2018-02-13T01:15:00.699Z,1017.30
2018-02-13T01:16:27.889Z,1017.29
2018-02-13T01:17:55.017Z,1017.29
2018-02-13T01:19:22.139Z,1017.33
2018-02-13T01:20:49.320Z,1017.33
2018-02-13T01:22:16.537Z,1017.34
2018-02-13T01:23:43.472Z,1017.33
2018-02-13T01:25:10.131Z,1017.32
2018-02-13T01:26:36.792Z,1017.33
2018-02-13T01:28:03.982Z,1017.35
2018-02-13T01:29:31.219Z,1017.36
2018-02-13T01:30:58.556Z,1017.38
2018-02-13T01:32:25.503Z,1017.37
2018-02-13T01:33:52.368Z,1017.38
2018-02-13T01:35:19.442Z,1017.40
2018-02-13T01:36:46.034Z,1017.40
2018-02-13T01:38:12.595Z,1017.39
2018-02-13T01:39:39.063Z,1017.39
2018-02-13T01:41:06.127Z,1017.39
2018-02-13T01:42:33.285Z,1017.41
2018-02-13T01:44:00.465Z,1017.44
2018-02-13T01:45:27.575Z,1017.44
2018-02-13T01:46:54.568Z,1017.47
2018-02-13T01:48:21.711Z,1017.47
2018-02-13T01:49:48.356Z,1017.46
2018-02-13T01:51:15.301Z,1017.45
2018-02-13T01:52:42.441Z,1017.47
2018-02-13T01:54:09.486Z,1017.49
2018-02-13T01:55:36.550Z,1017.51
2018-02-13T01:57:04.679Z,1017.51
2018-02-13T01:58:30.084Z,1017.51
2018-02-13T01:59:57.196Z,1017.49
2018-02-13T02:01:24.307Z,1017.49
2018-02-13T02:02:51.395Z,1017.50
2018-02-13T02:04:18.504Z,1017.49
2018-02-13T02:05:45.497Z,1017.49
2018-02-13T02:07:12.749Z,1017.44
2018-02-13T02:08:39.271Z,1017.48
2018-02-13T02:10:06.323Z,1017.48
2018-02-13T02:11:33.485Z,1017.47
2018-02-13T02:13:03.453Z,1017.46
2018-02-13T02:14:26.926Z,1017.47
2018-02-13T02:15:53.876Z,1017.46
2018-02-13T02:17:20.937Z,1017.47
2018-02-13T02:18:48.683Z,1017.48
2018-02-13T02:20:14.903Z,1017.48
2018-02-13T02:21:42.023Z,1017.48
2018-02-13T02:23:08.657Z,1017.48
2018-02-13T02:24:35.426Z,1017.49
2018-02-13T02:26:02.582Z,1017.47
2018-02-13T02:27:28.955Z,1017.51
2018-02-13T02:28:55.636Z,1017.51
2018-02-13T02:30:22.896Z,1017.53
2018-02-13T02:31:50.037Z,1017.53
2018-02-13T02:33:17.157Z,1017.53
2018-02-13T02:34:43.740Z,1017.54
2018-02-13T02:36:10.864Z,1017.55
2018-02-13T02:37:37.806Z,1017.55
2018-02-13T02:39:05.025Z,1017.55
2018-02-13T02:40:32.366Z,1017.57
2018-02-13T02:41:59.599Z,1017.55
2018-02-13T02:43:26.637Z,1017.53
2018-02-13T02:44:53.657Z,1017.55
2018-02-13T02:46:20.086Z,1017.56
2018-02-13T02:47:47.270Z,1017.56
2018-02-13T02:49:14.624Z,1017.59
2018-02-13T02:50:41.589Z,1017.59
2018-02-13T02:52:08.651Z,1017.60
2018-02-13T02:53:35.237Z,1017.58
2018-02-13T02:55:01.890Z,1017.60
2018-02-13T02:56:28.918Z,1017.60
2018-02-13T02:57:56.113Z,1017.61
2018-02-13T02:59:23.223Z,1017.59
2018-02-13T03:00:50.312Z,1017.61
2018-02-13T03:02:17.360Z,1017.62
2018-02-13T03:03:44.272Z,1017.62
2018-02-13T03:05:11.433Z,1017.61
2018-02-13T03:06:38.195Z,1017.59
2018-02-13T03:08:05.305Z,1017.59
2018-02-13T03:09:31.854Z,1017.62
2018-02-13T03:10:59.032Z,1017.64
2018-02-13T03:12:26.433Z,1017.64
2018-02-13T03:13:52.666Z,1017.65
2018-02-13T03:15:20.082Z,1017.63
2018-02-13T03:16:46.460Z,1017.63
2018-02-13T03:18:13.653Z,1017.62
2018-02-13T03:19:40.525Z,1017.62
2018-02-13T03:21:07.350Z,1017.66
2018-02-13T03:22:34.505Z,1017.66
2018-02-13T03:24:01.664Z,1017.69
2018-02-13T03:25:28.864Z,1017.66
2018-02-13T03:26:55.154Z,1017.70
2018-02-13T03:28:22.411Z,1017.72
2018-02-13T03:29:48.821Z,1017.71
2018-02-13T03:31:15.841Z,1017.73
2018-02-13T03:32:42.937Z,1017.75
2018-02-13T03:34:09.528Z,1017.75
2018-02-13T03:35:36.387Z,1017.75
2018-02-13T03:37:03.476Z,1017.77
2018-02-13T03:38:30.703Z,1017.81
2018-02-13T03:39:57.784Z,1017.79
2018-02-13T03:41:24.870Z,1017.78
2018-02-13T03:42:52.206Z,1017.77
2018-02-13T03:44:19.097Z,1017.76
2018-02-13T03:45:46.215Z,1017.75
2018-02-13T03:47:12.718Z,1017.78
2018-02-13T03:48:39.800Z,1017.75
2018-02-13T03:50:06.384Z,1017.75
2018-02-13T03:51:32.852Z,1017.76
2018-02-13T03:53:00.063Z,1017.76
2018-02-13T03:54:27.091Z,1017.78
2018-02-13T03:55:53.956Z,1017.78
2018-02-13T03:57:21.217Z,1017.78
2018-02-13T03:58:48.360Z,1017.78
2018-02-13T04:00:14.985Z,1017.81
2018-02-13T04:01:41.522Z,1017.78
2018-02-13T04:03:08.484Z,1017.81
2018-02-13T04:04:35.591Z,1017.81
2018-02-13T04:06:02.467Z,1017.82
2018-02-13T04:07:29.730Z,1017.83
2018-02-13T04:08:56.743Z,1017.84
2018-02-13T04:10:24.065Z,1017.86
2018-02-13T04:11:51.211Z,1017.88
2018-02-13T04:13:17.541Z,1017.90
2018-02-13T04:14:44.636Z,1017.89
2018-02-13T04:16:11.768Z,1017.90
2018-02-13T04:17:38.742Z,1017.91
2018-02-13T04:19:05.718Z,1017.93
2018-02-13T04:20:32.150Z,1017.94
2018-02-13T04:21:59.318Z,1017.95
2018-02-13T04:23:26.513Z,1017.97
2018-02-13T04:24:53.029Z,1017.95
2018-02-13T04:26:19.957Z,1017.90
2018-02-13T04:27:47.104Z,1017.91
2018-02-13T04:29:13.610Z,1017.92
2018-02-13T04:30:40.448Z,1017.91
2018-02-13T04:32:07.679Z,1017.93
2018-02-13T04:33:34.746Z,1017.92
2018-02-13T04:35:01.766Z,1017.93
2018-02-13T04:36:28.876Z,1017.93
2018-02-13T04:37:56.452Z,1017.91
2018-02-13T04:39:22.759Z,1017.88
2018-02-13T04:40:49.786Z,1017.89
2018-02-13T04:42:16.793Z,1017.89
2018-02-13T04:43:43.885Z,1017.89
2018-02-13T04:45:11.262Z,1017.89
2018-02-13T04:46:38.132Z,1017.89
2018-02-13T04:48:05.279Z,1017.88
2018-02-13T04:49:32.515Z,1017.87
2018-02-13T04:50:59.111Z,1017.88
2018-02-13T04:52:26.330Z,1017.88
2018-02-13T04:53:53.317Z,1017.90
2018-02-13T04:55:20.593Z,1017.89
2018-02-13T04:56:47.218Z,1017.89
2018-02-13T04:58:13.996Z,1017.88
2018-02-13T04:59:40.907Z,1017.89
2018-02-13T05:01:08.115Z,1017.91
2018-02-13T05:02:35.328Z,1017.91
2018-02-13T05:04:02.159Z,1017.91
2018-02-13T05:05:29.345Z,1017.92
2018-02-13T05:06:56.062Z,1017.95
2018-02-13T05:08:23.003Z,1017.96
2018-02-13T05:09:50.256Z,1017.95
2018-02-13T05:11:17.410Z,1017.94
2018-02-13T05:12:43.997Z,1017.95
2018-02-13T05:14:11.006Z,1017.94
2018-02-13T05:15:37.890Z,1017.93
2018-02-13T05:17:05.104Z,1017.93
2018-02-13T05:18:32.299Z,1017.94
2018-02-13T05:19:59.150Z,1017.97
2018-02-13T05:21:26.365Z,1017.94
2018-02-13T05:22:52.986Z,1017.95
2018-02-13T05:24:20.251Z,1017.99
2018-02-13T05:25:47.282Z,1018.00
2018-02-13T05:27:14.297Z,1018.00
2018-02-13T05:28:40.922Z,1018.00
2018-02-13T05:30:07.817Z,1017.99
2018-02-13T05:31:34.981Z,1018.03
2018-02-13T05:33:01.543Z,1018.01
2018-02-13T05:34:28.626Z,1018.03
2018-02-13T05:35:56.689Z,1018.04
2018-02-13T05:37:22.575Z,1018.04
2018-02-13T05:38:49.258Z,1018.03
2018-02-13T05:40:16.308Z,1018.04
2018-02-13T05:41:43.489Z,1018.05
2018-02-13T05:43:10.183Z,1018.09
2018-02-13T05:44:37.215Z,1018.10
2018-02-13T05:46:04.285Z,1018.09
2018-02-13T05:47:31.581Z,1018.06
2018-02-13T05:48:58.118Z,1018.06
2018-02-13T05:50:25.343Z,1018.03
2018-02-13T05:51:52.446Z,1018.04
2018-02-13T05:53:19.474Z,1018.02
2018-02-13T05:54:46.549Z,1018.01
2018-02-13T05:56:13.713Z,1018.01
2018-02-13T05:57:40.623Z,1018.02
2018-02-13T05:59:07.597Z,1018.04
2018-02-13T06:00:34.865Z,1018.05
2018-02-13T06:02:01.466Z,1018.07
2018-02-13T06:03:28.478Z,1018.07
2018-02-13T06:04:55.673Z,1018.12
2018-02-13T06:06:22.954Z,1018.12
2018-02-13T06:07:50.057Z,1018.15
2018-02-13T06:09:16.736Z,1018.14
2018-02-13T06:10:43.814Z,1018.16
2018-02-13T06:12:11.030Z,1018.17
2018-02-13T06:13:37.974Z,1018.22
2018-02-13T06:15:05.387Z,1018.25
2018-02-13T06:16:32.414Z,1018.24
2018-02-13T06:17:59.493Z,1018.23
2018-02-13T06:19:26.476Z,1018.24
2018-02-13T06:20:53.647Z,1018.27
2018-02-13T06:22:20.717Z,1018.25
2018-02-13T06:23:48.044Z,1018.25
2018-02-13T06:25:15.153Z,1018.26
2018-02-13T06:26:42.132Z,1018.29
2018-02-13T06:28:09.479Z,1018.30
2018-02-13T06:29:36.283Z,1018.31
2018-02-13T06:31:03.372Z,1018.32
2018-02-13T06:32:30.265Z,1018.32
2018-02-13T06:33:57.375Z,1018.32
2018-02-13T06:35:24.664Z,1018.34
2018-02-13T06:36:51.763Z,1018.36
2018-02-13T06:38:18.831Z,1018.39
2018-02-13T06:39:45.651Z,1018.38
2018-02-13T06:41:13.015Z,1018.37
2018-02-13T06:42:39.934Z,1018.35
2018-02-13T06:44:07.226Z,1018.35
2018-02-13T06:45:33.863Z,1018.38
2018-02-13T06:47:00.596Z,1018.40
2018-02-13T06:48:27.655Z,1018.40
2018-02-13T06:49:54.681Z,1018.42
2018-02-13T06:51:21.469Z,1018.40
2018-02-13T06:52:48.363Z,1018.39
2018-02-13T06:54:15.472Z,1018.39
2018-02-13T06:55:42.643Z,1018.39
2018-02-13T06:57:09.474Z,1018.36
2018-02-13T06:58:36.054Z,1018.35
2018-02-13T07:00:03.032Z,1018.37
2018-02-13T07:01:30.136Z,1018.34
2018-02-13T07:02:56.879Z,1018.34
2018-02-13T07:04:23.726Z,1018.36
2018-02-13T07:05:50.795Z,1018.39
2018-02-13T07:07:18.210Z,1018.37
2018-02-13T07:08:45.269Z,1018.38
2018-02-13T07:10:12.365Z,1018.41
2018-02-13T07:11:39.373Z,1018.41
2018-02-13T07:13:06.588Z,1018.39
2018-02-13T07:14:33.230Z,1018.39
2018-02-13T07:16:00.541Z,1018.41
2018-02-13T07:17:27.488Z,1018.43
2018-02-13T07:18:54.759Z,1018.44
2018-02-13T07:20:21.924Z,1018.42
2018-02-13T07:21:49.132Z,1018.43
2018-02-13T07:23:15.912Z,1018.41
2018-02-13T07:24:43.200Z,1018.43
2018-02-13T07:26:10.135Z,1018.40
2018-02-13T07:27:37.067Z,1018.38
2018-02-13T07:29:04.127Z,1018.43
2018-02-13T07:30:31.376Z,1018.44
2018-02-13T07:31:58.290Z,1018.45
2018-02-13T07:33:25.351Z,1018.43
2018-02-13T07:34:52.127Z,1018.41
2018-02-13T07:36:19.093Z,1018.42
2018-02-13T07:37:46.147Z,1018.41
2018-02-13T07:39:13.140Z,1018.43
2018-02-13T07:40:40.144Z,1018.38
2018-02-13T07:42:06.926Z,1018.39
2018-02-13T07:43:33.694Z,1018.39
2018-02-13T07:45:00.875Z,1018.42
2018-02-13T07:46:27.852Z,1018.41
2018-02-13T07:47:55.118Z,1018.42
2018-02-13T07:49:22.307Z,1018.41
2018-02-13T07:50:49.446Z,1018.43
2018-02-13T07:52:16.037Z,1018.39
2018-02-13T07:53:43.256Z,1018.37
2018-02-13T07:55:09.903Z,1018.40
2018-02-13T07:56:36.397Z,1018.41
2018-02-13T07:58:03.390Z,1018.43
2018-02-13T07:59:30.643Z,1018.47
2018-02-13T08:00:57.964Z,1018.50
2018-02-13T08:02:25.341Z,1018.52
2018-02-13T08:03:52.238Z,1018.54
2018-02-13T08:05:19.307Z,1018.53
2018-02-13T08:06:46.686Z,1018.52
2018-02-13T08:08:13.717Z,1018.54
2018-02-13T08:09:40.791Z,1018.55
2018-02-13T08:11:07.846Z,1018.55
2018-02-13T08:12:34.918Z,1018.58
2018-02-13T08:14:02.068Z,1018.59
2018-02-13T08:15:28.890Z,1018.57
2018-02-13T08:16:56.129Z,1018.59
2018-02-13T08:18:22.978Z,1018.58
2018-02-13T08:19:49.721Z,1018.60
2018-02-13T08:21:16.492Z,1018.61
2018-02-13T08:22:43.216Z,1018.62
2018-02-13T08:24:10.160Z,1018.64
2018-02-13T08:25:37.095Z,1018.65
2018-02-13T08:27:04.337Z,1018.65
2018-02-13T08:28:31.289Z,1018.69
2018-02-13T08:29:58.462Z,1018.71
2018-02-13T08:31:25.250Z,1018.68
2018-02-13T08:32:52.373Z,1018.66
2018-02-13T08:34:19.000Z,1018.68
2018-02-13T08:35:45.890Z,1018.71
2018-02-13T08:37:12.675Z,1018.70
2018-02-13T08:38:39.682Z,1018.70
2018-02-13T08:40:06.412Z,1018.71
2018-02-13T08:41:32.931Z,1018.72
2018-02-13T08:43:00.011Z,1018.70
2018-02-13T08:44:27.073Z,1018.70
2018-02-13T08:45:54.261Z,1018.72
2018-02-13T08:47:21.433Z,1018.72
2018-02-13T08:48:48.446Z,1018.71
2018-02-13T08:50:15.487Z,1018.70
2018-02-13T08:51:42.598Z,1018.72
2018-02-13T08:53:09.306Z,1018.72
2018-02-13T08:54:36.235Z,1018.72
2018-02-13T08:56:02.954Z,1018.71
2018-02-13T08:57:29.984Z,1018.71
2018-02-13T08:58:57.067Z,1018.74
2018-02-13T09:00:24.187Z,1018.73
2018-02-13T09:01:51.410Z,1018.72
2018-02-13T09:03:18.541Z,1018.74
2018-02-13T09:04:45.347Z,1018.75
2018-02-13T09:06:12.588Z,1018.76
2018-02-13T09:07:39.781Z,1018.77
2018-02-13T09:09:06.828Z,1018.78
2018-02-13T09:10:33.780Z,1018.79
2018-02-13T09:12:00.869Z,1018.81
2018-02-13T09:13:28.200Z,1018.82
2018-02-13T09:14:55.598Z,1018.83
2018-02-13T09:16:22.762Z,1018.83
2018-02-13T09:17:49.922Z,1018.85
2018-02-13T09:19:16.842Z,1018.83
2018-02-13T09:20:44.009Z,1018.82
2018-02-13T09:22:11.084Z,1018.84
2018-02-13T09:23:38.048Z,1018.82
2018-02-13T09:25:05.476Z,1018.81
2018-02-13T09:26:32.724Z,1018.83
2018-02-13T09:27:59.419Z,1018.84
2018-02-13T09:29:26.233Z,1018.82
2018-02-13T09:30:53.438Z,1018.86
2018-02-13T09:32:20.569Z,1018.83
2018-02-13T09:33:47.360Z,1018.79
2018-02-13T09:35:14.266Z,1018.76
2018-02-13T09:36:41.486Z,1018.76
2018-02-13T09:38:08.695Z,1018.74
2018-02-13T09:39:35.790Z,1018.73
2018-02-13T09:41:03.098Z,1018.72
2018-02-13T09:42:29.836Z,1018.72
2018-02-13T09:43:56.896Z,1018.70
2018-02-13T09:45:24.058Z,1018.71
2018-02-13T09:46:50.997Z,1018.72
2018-02-13T09:48:18.043Z,1018.71
2018-02-13T09:49:45.273Z,1018.70
2018-02-13T09:51:12.462Z,1018.71
2018-02-13T09:52:39.567Z,1018.73
2018-02-13T09:54:06.579Z,1018.72
2018-02-13T09:55:33.660Z,1018.73
2018-02-13T09:57:00.413Z,1018.71
2018-02-13T09:58:27.326Z,1018.71
2018-02-13T09:59:54.600Z,1018.69
2018-02-13T10:01:21.595Z,1018.68
2018-02-13T10:02:48.594Z,1018.66
2018-02-13T10:04:15.710Z,1018.71
2018-02-13T10:05:42.763Z,1018.68
2018-02-13T10:07:09.618Z,1018.68
2018-02-13T10:08:36.684Z,1018.66
2018-02-13T10:10:04.035Z,1018.65
2018-02-13T10:11:30.785Z,1018.66
2018-02-13T10:12:57.979Z,1018.64
2018-02-13T10:14:24.967Z,1018.69
2018-02-13T10:15:52.247Z,1018.66
2018-02-13T10:17:18.822Z,1018.65
2018-02-13T10:18:45.845Z,1018.66
2018-02-13T10:20:13.104Z,1018.67
2018-02-13T10:21:39.732Z,1018.63
2018-02-13T10:23:06.848Z,1018.65
2018-02-13T10:24:33.735Z,1018.63
2018-02-13T10:26:00.851Z,1018.60
2018-02-13T10:27:28.196Z,1018.60
2018-02-13T10:28:55.342Z,1018.60
2018-02-13T10:30:22.703Z,1018.59
2018-02-13T10:31:49.860Z,1018.57
2018-02-13T10:33:17.074Z,1018.58
2018-02-13T10:34:44.303Z,1018.58
2018-02-13T10:36:11.238Z,1018.56
2018-02-13T10:37:38.276Z,1018.57
2018-02-13T10:39:05.145Z,1018.57
2018-02-13T10:40:32.112Z,1018.57
2018-02-13T10:41:59.186Z,1018.59
2018-02-13T10:43:26.141Z,1018.59
2018-02-13T10:44:53.330Z,1018.57
2018-02-13T10:46:20.501Z,1018.61
2018-02-13T10:47:47.723Z,1018.61
2018-02-13T10:49:14.932Z,1018.59
2018-02-13T10:50:42.100Z,1018.58
2018-02-13T10:52:09.161Z,1018.59
2018-02-13T10:53:35.979Z,1018.56
2018-02-13T10:55:03.198Z,1018.55
2018-02-13T10:56:30.495Z,1018.54
2018-02-13T10:57:57.388Z,1018.53
2018-02-13T10:59:24.246Z,1018.54
2018-02-13T11:00:51.431Z,1018.53
2018-02-13T11:02:18.508Z,1018.54
2018-02-13T11:03:45.396Z,1018.54
2018-02-13T11:05:12.188Z,1018.52
2018-02-13T11:06:39.006Z,1018.53
2018-02-13T11:08:05.985Z,1018.53
2018-02-13T11:09:33.156Z,1018.51
2018-02-13T11:11:00.484Z,1018.50
2018-02-13T11:12:27.731Z,1018.51
2018-02-13T11:13:54.631Z,1018.51
2018-02-13T11:15:21.588Z,1018.52
2018-02-13T11:16:48.886Z,1018.50
2018-02-13T11:18:15.993Z,1018.51
2018-02-13T11:19:43.228Z,1018.49
2018-02-13T11:21:10.254Z,1018.50
2018-02-13T11:22:37.553Z,1018.49
2018-02-13T11:24:04.826Z,1018.47
2018-02-13T11:25:31.897Z,1018.46
2018-02-13T11:26:59.307Z,1018.46
2018-02-13T11:28:26.567Z,1018.46
2018-02-13T11:29:53.735Z,1018.44
2018-02-13T11:31:21.049Z,1018.42
2018-02-13T11:32:48.125Z,1018.42
2018-02-13T11:34:14.896Z,1018.37
2018-02-13T11:35:41.772Z,1018.35
2018-02-13T11:37:09.038Z,1018.33
2018-02-13T11:38:35.776Z,1018.33
2018-02-13T11:40:03.061Z,1018.31
2018-02-13T11:41:30.385Z,1018.30
2018-02-13T11:42:57.307Z,1018.29
2018-02-13T11:44:24.559Z,1018.25
2018-02-13T11:45:51.581Z,1018.26
2018-02-13T11:47:18.787Z,1018.25
2018-02-13T11:48:46.213Z,1018.24
2018-02-13T11:50:13.411Z,1018.24
2018-02-13T11:51:40.528Z,1018.21
2018-02-13T11:53:07.814Z,1018.21
2018-02-13T11:54:34.979Z,1018.16
2018-02-13T11:56:02.154Z,1018.16
2018-02-13T11:57:29.606Z,1018.15
2018-02-13T11:58:56.798Z,1018.13
2018-02-13T12:00:24.048Z,1018.13
2018-02-13T12:01:51.366Z,1018.09
2018-02-13T12:03:18.440Z,1018.08
2018-02-13T12:04:45.594Z,1018.10
2018-02-13T12:06:12.577Z,1018.09
2018-02-13T12:07:39.957Z,1018.07
2018-02-13T12:09:06.977Z,1018.06
2018-02-13T12:10:33.734Z,1018.03
2018-02-13T12:12:01.026Z,1017.98
2018-02-13T12:13:28.178Z,1017.97
2018-02-13T12:14:55.295Z,1017.96
2018-02-13T12:16:22.502Z,1017.99
2018-02-13T12:17:49.791Z,1017.99
2018-02-13T12:19:17.026Z,1017.94
2018-02-13T12:20:44.255Z,1017.95
2018-02-13T12:22:11.399Z,1017.97
2018-02-13T12:23:38.551Z,1017.95
2018-02-13T12:25:05.483Z,1017.93
2018-02-13T12:26:32.831Z,1017.90
2018-02-13T12:28:00.014Z,1017.90
2018-02-13T12:29:27.346Z,1017.89
2018-02-13T12:30:54.518Z,1017.86
2018-02-13T12:32:21.829Z,1017.79
2018-02-13T12:33:49.213Z,1017.78
2018-02-13T12:35:16.304Z,1017.76
2018-02-13T12:36:43.585Z,1017.75
2018-02-13T12:38:10.471Z,1017.76
2018-02-13T12:39:37.393Z,1017.75
2018-02-13T12:41:04.718Z,1017.74
2018-02-13T12:42:32.034Z,1017.70
2018-02-13T12:43:59.275Z,1017.67
2018-02-13T12:45:26.646Z,1017.66
2018-02-13T12:46:53.842Z,1017.65
2018-02-13T12:48:21.323Z,1017.62
2018-02-13T12:49:48.286Z,1017.59
2018-02-13T12:51:15.635Z,1017.58
2018-02-13T12:52:42.605Z,1017.57
2018-02-13T12:54:09.834Z,1017.55
2018-02-13T12:55:37.028Z,1017.56
2018-02-13T12:57:04.173Z,1017.57
2018-02-13T12:58:31.459Z,1017.56
2018-02-13T12:59:58.753Z,1017.55
2018-02-13T13:01:26.062Z,1017.53
2018-02-13T13:02:53.375Z,1017.53
2018-02-13T13:04:20.593Z,1017.50
2018-02-13T13:05:47.969Z,1017.52
2018-02-13T13:07:15.355Z,1017.52
2018-02-13T13:08:42.530Z,1017.50
2018-02-13T13:10:09.724Z,1017.47
2018-02-13T13:11:36.931Z,1017.45
2018-02-13T13:13:03.693Z,1017.46
2018-02-13T13:14:30.913Z,1017.45
2018-02-13T13:15:57.799Z,1017.44
2018-02-13T13:17:25.216Z,1017.41
2018-02-13T13:18:52.490Z,1017.37
2018-02-13T13:20:19.725Z,1017.35
2018-02-13T13:21:47.026Z,1017.35
2018-02-13T13:23:14.089Z,1017.33
2018-02-13T13:24:41.272Z,1017.35
2018-02-13T13:26:08.739Z,1017.32
2018-02-13T13:27:35.177Z,1017.33
2018-02-13T13:29:02.311Z,1017.33
2018-02-13T13:30:29.684Z,1017.28
2018-02-13T13:31:56.864Z,1017.27
2018-02-13T13:33:24.395Z,1017.25
2018-02-13T13:34:51.582Z,1017.23
2018-02-13T13:36:18.865Z,1017.24
2018-02-13T13:37:45.857Z,1017.21
2018-02-13T13:39:12.800Z,1017.19
2018-02-13T13:40:39.560Z,1017.20
2018-02-13T13:42:06.410Z,1017.16
2018-02-13T13:43:33.854Z,1017.18
2018-02-13T13:45:00.507Z,1017.17
2018-02-13T13:46:27.719Z,1017.15
2018-02-13T13:47:55.059Z,1017.16
2018-02-13T13:49:21.568Z,1017.15
2018-02-13T13:50:48.785Z,1017.17
2018-02-13T13:52:16.005Z,1017.15
2018-02-13T13:53:43.240Z,1017.13
2018-02-13T13:55:10.605Z,1017.15
2018-02-13T13:56:37.861Z,1017.15
2018-02-13T13:58:05.067Z,1017.16
2018-02-13T13:59:31.854Z,1017.17
2018-02-13T14:00:59.127Z,1017.15
2018-02-13T14:02:26.528Z,1017.18
2018-02-13T14:03:53.835Z,1017.18
2018-02-13T14:05:21.123Z,1017.16
2018-02-13T14:06:48.007Z,1017.18
2018-02-13T14:08:14.758Z,1017.18
2018-02-13T14:09:41.998Z,1017.18
2018-02-13T14:11:09.117Z,1017.19
2018-02-13T14:12:36.364Z,1017.21
2018-02-13T14:14:03.280Z,1017.20
2018-02-13T14:15:30.489Z,1017.24
2018-02-13T14:16:57.896Z,1017.25
2018-02-13T14:18:25.091Z,1017.24
2018-02-13T14:19:51.535Z,1017.27
2018-02-13T14:21:18.708Z,1017.27
2018-02-13T14:22:46.041Z,1017.28
2018-02-13T14:24:13.159Z,1017.29
2018-02-13T14:25:40.546Z,1017.34
2018-02-13T14:27:07.423Z,1017.33
2018-02-13T14:28:34.585Z,1017.32
2018-02-13T14:30:01.880Z,1017.35
2018-02-13T14:31:28.840Z,1017.37
2018-02-13T14:32:56.238Z,1017.40
2018-02-13T14:34:23.184Z,1017.37
2018-02-13T14:35:50.386Z,1017.40
2018-02-13T14:37:17.526Z,1017.39
2018-02-13T14:38:44.720Z,1017.43
2018-02-13T14:40:12.018Z,1017.44
2018-02-13T14:41:39.151Z,1017.47
2018-02-13T14:43:06.418Z,1017.49
2018-02-13T14:44:33.699Z,1017.50
2018-02-13T14:46:01.188Z,1017.55
2018-02-13T14:47:27.996Z,1017.55
2018-02-13T14:48:54.821Z,1017.55
2018-02-13T14:50:22.247Z,1017.57
2018-02-13T14:51:49.490Z,1017.59
2018-02-13T14:53:16.717Z,1017.59
2018-02-13T14:54:44.066Z,1017.60
2018-02-13T14:56:11.206Z,1017.59
2018-02-13T14:57:38.582Z,1017.61
2018-02-13T14:59:05.421Z,1017.65
2018-02-13T15:00:32.695Z,1017.67
2018-02-13T15:01:59.848Z,1017.67
2018-02-13T15:03:27.094Z,1017.68
2018-02-13T15:04:54.404Z,1017.72
2018-02-13T15:06:21.635Z,1017.72
2018-02-13T15:07:48.876Z,1017.72
2018-02-13T15:09:16.266Z,1017.75
2018-02-13T15:10:43.480Z,1017.74
2018-02-13T15:12:10.590Z,1017.78
2018-02-13T15:13:37.783Z,1017.79
2018-02-13T15:15:05.108Z,1017.81
2018-02-13T15:16:32.336Z,1017.83
2018-02-13T15:17:59.501Z,1017.86
2018-02-13T15:19:27.010Z,1017.88
2018-02-13T15:20:54.163Z,1017.90
2018-02-13T15:22:21.449Z,1017.92
2018-02-13T15:23:48.727Z,1017.92
2018-02-13T15:25:16.028Z,1017.93
2018-02-13T15:26:43.221Z,1017.94
2018-02-13T15:28:10.566Z,1017.97
2018-02-13T15:29:37.740Z,1017.98
2018-02-13T15:31:04.800Z,1017.99
2018-02-13T15:32:31.900Z,1018.01
2018-02-13T15:33:59.389Z,1017.97
2018-02-13T15:35:26.653Z,1017.98
2018-02-13T15:36:53.783Z,1017.99
2018-02-13T15:38:20.961Z,1018.00
2018-02-13T15:39:48.149Z,1018.00
2018-02-13T15:41:15.370Z,1018.02
2018-02-13T15:42:42.560Z,1018.03
2018-02-13T15:44:09.745Z,1018.02
2018-02-13T15:45:36.922Z,1018.05
2018-02-13T15:47:04.182Z,1018.05
2018-02-13T15:48:31.282Z,1018.07
2018-02-13T15:49:58.679Z,1018.08
2018-02-13T15:51:25.976Z,1018.08
2018-02-13T15:52:53.268Z,1018.07
2018-02-13T15:54:20.456Z,1018.07
2018-02-13T15:55:47.648Z,1018.06
2018-02-13T15:57:14.833Z,1018.09
2018-02-13T15:58:42.138Z,1018.09
2018-02-13T16:00:09.365Z,1018.09
2018-02-13T16:01:36.253Z,1018.10
2018-02-13T16:03:03.704Z,1018.12
2018-02-13T16:04:30.937Z,1018.13
2018-02-13T16:05:58.094Z,1018.14
2018-02-13T16:07:25.309Z,1018.15
2018-02-13T16:08:52.479Z,1018.15
2018-02-13T16:10:19.692Z,1018.15
2018-02-13T16:11:46.847Z,1018.17
2018-02-13T16:13:13.872Z,1018.20
2018-02-13T16:14:41.080Z,1018.19
2018-02-13T16:16:08.500Z,1018.19
2018-02-13T16:17:35.624Z,1018.22
2018-02-13T16:19:02.866Z,1018.23
2018-02-13T16:20:30.185Z,1018.24
2018-02-13T16:21:57.230Z,1018.23
2018-02-13T16:23:24.350Z,1018.25
2018-02-13T16:24:51.690Z,1018.22
2018-02-13T16:26:18.911Z,1018.22
2018-02-13T16:27:46.232Z,1018.29
2018-02-13T16:29:13.436Z,1018.32
2018-02-13T16:30:40.261Z,1018.31
2018-02-13T16:32:07.441Z,1018.32
2018-02-13T16:33:34.305Z,1018.33
2018-02-13T16:35:01.610Z,1018.35
2018-02-13T16:36:28.878Z,1018.39
2018-02-13T16:37:56.269Z,1018.40
2018-02-13T16:39:23.321Z,1018.42
2018-02-13T16:40:50.698Z,1018.42
2018-02-13T16:42:17.697Z,1018.43
2018-02-13T16:43:44.953Z,1018.44
2018-02-13T16:45:12.280Z,1018.43
2018-02-13T16:46:39.382Z,1018.44
2018-02-13T16:48:06.429Z,1018.45
2018-02-13T16:49:33.700Z,1018.47
2018-02-13T16:51:00.803Z,1018.50
2018-02-13T16:52:27.959Z,1018.50
2018-02-13T16:53:55.101Z,1018.52
2018-02-13T16:55:22.195Z,1018.51
2018-02-13T16:56:49.091Z,1018.53
2018-02-13T16:58:16.159Z,1018.54
2018-02-13T16:59:43.323Z,1018.56
2018-02-13T17:01:10.540Z,1018.58
2018-02-13T17:02:37.653Z,1018.59
2018-02-13T17:04:04.973Z,1018.58
2018-02-13T17:05:32.053Z,1018.57
2018-02-13T17:06:59.376Z,1018.57
2018-02-13T17:08:26.637Z,1018.59
2018-02-13T17:09:53.913Z,1018.61
2018-02-13T17:11:21.017Z,1018.62
2018-02-13T17:12:48.364Z,1018.64
2018-02-13T17:14:15.621Z,1018.66
2018-02-13T17:15:42.847Z,1018.67
2018-02-13T17:17:09.907Z,1018.66
2018-02-13T17:18:37.113Z,1018.71
2018-02-13T17:20:04.427Z,1018.71
2018-02-13T17:21:31.612Z,1018.71
2018-02-13T17:22:58.881Z,1018.72
2018-02-13T17:24:26.270Z,1018.71
2018-02-13T17:25:53.511Z,1018.74
2018-02-13T17:27:20.825Z,1018.75
2018-02-13T17:28:48.069Z,1018.75
2018-02-13T17:30:15.288Z,1018.76
2018-02-13T17:31:42.401Z,1018.80
2018-02-13T17:33:09.496Z,1018.80